sensor_id;sensor_type;location;lat;lon;timestamp;P1;durP1;ratioP1;P2;durP2;ratioP2
40367;SDS011;26075;43.320;21.920;2023-03-14T00:05:08;32.58;;;19.85;;
40367;SDS011;26075;43.320;21.920;2023-03-14T00:10:10;22.52;;;14.88;;
40367;SDS011;26075;43.320;21.920;2023-03-14T00:15:12;16.88;;;12.20;;
40367;SDS011;26075;43.320;21.920;2023-03-14T00:20:13;16.55;;;10.25;;
40367;SDS011;26075;43.320;21.920;2023-03-14T00:25:14;15.02;;;9.65;;
40367;SDS011;26075;43.320;21.920;2023-03-14T00:30:16;16.10;;;10.65;;
40367;SDS011;26075;43.320;21.920;2023-03-14T00:35:17;15.57;;;10.05;;
40367;SDS011;26075;43.320;21.920;2023-03-14T00:40:18;19.05;;;12.13;;
40367;SDS011;26075;43.320;21.920;2023-03-14T00:45:19;22.08;;;15.43;;
40367;SDS011;26075;43.320;21.920;2023-03-14T00:50:20;35.20;;;20.90;;
40367;SDS011;26075;43.320;21.920;2023-03-14T00:55:21;18.25;;;10.68;;
40367;SDS011;26075;43.320;21.920;2023-03-14T01:00:22;18.58;;;10.48;;
40367;SDS011;26075;43.320;21.920;2023-03-14T01:05:23;19.80;;;13.15;;
40367;SDS011;26075;43.320;21.920;2023-03-14T01:10:24;24.60;;;15.90;;
40367;SDS011;26075;43.320;21.920;2023-03-14T01:15:25;26.75;;;16.23;;
40367;SDS011;26075;43.320;21.920;2023-03-14T01:20:26;17.90;;;11.55;;
40367;SDS011;26075;43.320;21.920;2023-03-14T01:25:28;15.02;;;8.45;;
40367;SDS011;26075;43.320;21.920;2023-03-14T01:30:30;14.73;;;10.30;;
40367;SDS011;26075;43.320;21.920;2023-03-14T01:35:31;16.30;;;10.40;;
40367;SDS011;26075;43.320;21.920;2023-03-14T01:40:32;19.20;;;11.05;;
40367;SDS011;26075;43.320;21.920;2023-03-14T01:50:53;16.95;;;10.63;;
40367;SDS011;26075;43.320;21.920;2023-03-14T01:55:54;13.07;;;9.15;;
40367;SDS011;26075;43.320;21.920;2023-03-14T02:00:59;13.60;;;8.57;;
40367;SDS011;26075;43.320;21.920;2023-03-14T02:06:01;12.93;;;7.75;;
40367;SDS011;26075;43.320;21.920;2023-03-14T02:11:05;14.75;;;7.35;;
40367;SDS011;26075;43.320;21.920;2023-03-14T02:16:08;11.43;;;7.50;;
40367;SDS011;26075;43.320;21.920;2023-03-14T02:26:38;9.82;;;6.63;;
40367;SDS011;26075;43.320;21.920;2023-03-14T02:31:41;10.57;;;6.78;;
40367;SDS011;26075;43.320;21.920;2023-03-14T02:36:42;11.93;;;6.75;;
40367;SDS011;26075;43.320;21.920;2023-03-14T02:41:43;10.50;;;7.03;;
40367;SDS011;26075;43.320;21.920;2023-03-14T02:46:46;10.95;;;6.25;;
40367;SDS011;26075;43.320;21.920;2023-03-14T02:51:47;9.30;;;6.32;;
40367;SDS011;26075;43.320;21.920;2023-03-14T02:56:48;11.43;;;7.28;;
40367;SDS011;26075;43.320;21.920;2023-03-14T03:01:49;9.27;;;6.43;;
40367;SDS011;26075;43.320;21.920;2023-03-14T03:06:50;9.00;;;6.38;;
40367;SDS011;26075;43.320;21.920;2023-03-14T03:11:52;9.63;;;6.95;;
40367;SDS011;26075;43.320;21.920;2023-03-14T03:16:53;10.77;;;6.78;;
40367;SDS011;26075;43.320;21.920;2023-03-14T03:21:54;9.38;;;6.72;;
40367;SDS011;26075;43.320;21.920;2023-03-14T03:26:55;9.32;;;6.40;;
40367;SDS011;26075;43.320;21.920;2023-03-14T03:31:56;11.15;;;7.28;;
40367;SDS011;26075;43.320;21.920;2023-03-14T03:36:57;11.38;;;6.78;;
40367;SDS011;26075;43.320;21.920;2023-03-14T03:41:58;11.38;;;6.43;;
40367;SDS011;26075;43.320;21.920;2023-03-14T03:46:59;10.27;;;6.32;;
40367;SDS011;26075;43.320;21.920;2023-03-14T03:52:00;7.93;;;6.22;;
40367;SDS011;26075;43.320;21.920;2023-03-14T03:57:02;12.50;;;7.28;;
40367;SDS011;26075;43.320;21.920;2023-03-14T04:02:03;13.00;;;8.75;;
40367;SDS011;26075;43.320;21.920;2023-03-14T04:07:04;15.25;;;9.95;;
40367;SDS011;26075;43.320;21.920;2023-03-14T04:12:06;15.25;;;8.98;;
40367;SDS011;26075;43.320;21.920;2023-03-14T04:17:07;15.48;;;9.07;;
40367;SDS011;26075;43.320;21.920;2023-03-14T04:22:08;14.45;;;7.47;;
40367;SDS011;26075;43.320;21.920;2023-03-14T04:27:10;11.60;;;6.10;;
40367;SDS011;26075;43.320;21.920;2023-03-14T04:32:11;10.68;;;6.68;;
40367;SDS011;26075;43.320;21.920;2023-03-14T04:37:12;9.80;;;6.47;;
40367;SDS011;26075;43.320;21.920;2023-03-14T04:42:13;11.32;;;6.32;;
40367;SDS011;26075;43.320;21.920;2023-03-14T04:47:14;9.85;;;6.25;;
40367;SDS011;26075;43.320;21.920;2023-03-14T04:52:15;15.38;;;6.80;;
40367;SDS011;26075;43.320;21.920;2023-03-14T04:57:16;14.35;;;7.85;;
40367;SDS011;26075;43.320;21.920;2023-03-14T05:02:17;13.68;;;8.95;;
40367;SDS011;26075;43.320;21.920;2023-03-14T05:07:18;14.80;;;7.20;;
40367;SDS011;26075;43.320;21.920;2023-03-14T05:12:20;16.77;;;7.97;;
40367;SDS011;26075;43.320;21.920;2023-03-14T05:17:21;11.55;;;6.95;;
40367;SDS011;26075;43.320;21.920;2023-03-14T05:22:22;13.55;;;8.88;;
40367;SDS011;26075;43.320;21.920;2023-03-14T05:27:23;19.17;;;9.80;;
40367;SDS011;26075;43.320;21.920;2023-03-14T05:32:24;14.85;;;10.35;;
40367;SDS011;26075;43.320;21.920;2023-03-14T05:37:26;14.65;;;10.05;;
40367;SDS011;26075;43.320;21.920;2023-03-14T05:42:27;14.90;;;9.60;;
40367;SDS011;26075;43.320;21.920;2023-03-14T05:47:28;17.42;;;8.63;;
40367;SDS011;26075;43.320;21.920;2023-03-14T05:52:29;14.00;;;8.25;;
40367;SDS011;26075;43.320;21.920;2023-03-14T05:57:30;13.45;;;8.48;;
40367;SDS011;26075;43.320;21.920;2023-03-14T06:02:32;12.52;;;8.35;;
40367;SDS011;26075;43.320;21.920;2023-03-14T06:07:33;11.88;;;7.65;;
40367;SDS011;26075;43.320;21.920;2023-03-14T06:12:34;11.20;;;6.63;;
40367;SDS011;26075;43.320;21.920;2023-03-14T06:17:35;12.07;;;6.57;;
40367;SDS011;26075;43.320;21.920;2023-03-14T06:22:36;14.10;;;6.68;;
40367;SDS011;26075;43.320;21.920;2023-03-14T06:27:38;9.48;;;6.03;;
40367;SDS011;26075;43.320;21.920;2023-03-14T06:32:39;10.05;;;6.65;;
40367;SDS011;26075;43.320;21.920;2023-03-14T06:37:40;12.45;;;6.85;;
40367;SDS011;26075;43.320;21.920;2023-03-14T06:42:41;11.32;;;7.05;;
40367;SDS011;26075;43.320;21.920;2023-03-14T06:47:42;13.82;;;7.28;;
40367;SDS011;26075;43.320;21.920;2023-03-14T06:52:43;12.35;;;7.60;;
40367;SDS011;26075;43.320;21.920;2023-03-14T06:57:47;13.70;;;7.28;;
40367;SDS011;26075;43.320;21.920;2023-03-14T07:02:48;11.55;;;6.78;;
40367;SDS011;26075;43.320;21.920;2023-03-14T07:07:49;15.73;;;6.82;;
40367;SDS011;26075;43.320;21.920;2023-03-14T07:12:50;11.73;;;7.15;;
40367;SDS011;26075;43.320;21.920;2023-03-14T07:17:52;14.70;;;7.25;;
40367;SDS011;26075;43.320;21.920;2023-03-14T07:22:53;11.23;;;6.13;;
40367;SDS011;26075;43.320;21.920;2023-03-14T07:27:54;14.80;;;7.47;;
40367;SDS011;26075;43.320;21.920;2023-03-14T07:32:56;13.13;;;8.05;;
40367;SDS011;26075;43.320;21.920;2023-03-14T07:37:57;12.38;;;7.47;;
40367;SDS011;26075;43.320;21.920;2023-03-14T07:42:58;14.38;;;6.72;;
40367;SDS011;26075;43.320;21.920;2023-03-14T07:47:59;12.80;;;7.00;;
40367;SDS011;26075;43.320;21.920;2023-03-14T07:53:02;11.23;;;6.50;;
40367;SDS011;26075;43.320;21.920;2023-03-14T07:58:03;14.70;;;6.95;;
40367;SDS011;26075;43.320;21.920;2023-03-14T08:03:04;12.10;;;6.35;;
40367;SDS011;26075;43.320;21.920;2023-03-14T08:08:05;12.32;;;5.93;;
40367;SDS011;26075;43.320;21.920;2023-03-14T08:13:06;12.23;;;6.32;;
40367;SDS011;26075;43.320;21.920;2023-03-14T08:18:07;16.08;;;8.18;;
40367;SDS011;26075;43.320;21.920;2023-03-14T08:23:08;9.27;;;5.60;;
40367;SDS011;26075;43.320;21.920;2023-03-14T08:28:09;12.30;;;6.30;;
40367;SDS011;26075;43.320;21.920;2023-03-14T08:33:11;10.35;;;5.50;;
40367;SDS011;26075;43.320;21.920;2023-03-14T08:38:12;12.68;;;6.38;;
40367;SDS011;26075;43.320;21.920;2023-03-14T08:43:13;10.93;;;6.38;;
40367;SDS011;26075;43.320;21.920;2023-03-14T08:48:14;10.38;;;5.75;;
40367;SDS011;26075;43.320;21.920;2023-03-14T08:53:15;9.95;;;5.93;;
40367;SDS011;26075;43.320;21.920;2023-03-14T08:58:16;13.93;;;6.15;;
40367;SDS011;26075;43.320;21.920;2023-03-14T09:03:17;11.30;;;6.20;;
40367;SDS011;26075;43.320;21.920;2023-03-14T09:08:18;8.70;;;5.30;;
40367;SDS011;26075;43.320;21.920;2023-03-14T09:13:19;9.80;;;5.93;;
40367;SDS011;26075;43.320;21.920;2023-03-14T09:18:21;9.32;;;5.63;;
40367;SDS011;26075;43.320;21.920;2023-03-14T09:23:22;9.93;;;5.97;;
40367;SDS011;26075;43.320;21.920;2023-03-14T09:28:23;9.77;;;5.65;;
40367;SDS011;26075;43.320;21.920;2023-03-14T09:33:24;8.50;;;5.57;;
40367;SDS011;26075;43.320;21.920;2023-03-14T09:38:26;12.40;;;5.40;;
40367;SDS011;26075;43.320;21.920;2023-03-14T09:43:31;11.50;;;6.15;;
40367;SDS011;26075;43.320;21.920;2023-03-14T09:48:34;8.73;;;5.15;;
40367;SDS011;26075;43.320;21.920;2023-03-14T09:54:08;15.63;;;5.30;;
40367;SDS011;26075;43.320;21.920;2023-03-14T09:59:03;14.57;;;4.75;;
40367;SDS011;26075;43.320;21.920;2023-03-14T10:04:09;11.55;;;5.30;;
40367;SDS011;26075;43.320;21.920;2023-03-14T10:09:29;8.30;;;4.50;;
40367;SDS011;26075;43.320;21.920;2023-03-14T10:14:34;7.65;;;4.10;;
40367;SDS011;26075;43.320;21.920;2023-03-14T10:24:36;11.43;;;4.85;;
40367;SDS011;26075;43.320;21.920;2023-03-14T10:29:40;12.35;;;6.60;;
40367;SDS011;26075;43.320;21.920;2023-03-14T10:40:12;11.02;;;5.25;;
40367;SDS011;26075;43.320;21.920;2023-03-14T10:55:27;11.85;;;4.10;;
40367;SDS011;26075;43.320;21.920;2023-03-14T11:00:28;11.00;;;5.18;;
40367;SDS011;26075;43.320;21.920;2023-03-14T11:05:34;6.60;;;2.47;;
40367;SDS011;26075;43.320;21.920;2023-03-14T11:10:38;6.68;;;3.00;;
40367;SDS011;26075;43.320;21.920;2023-03-14T11:15:52;6.03;;;3.37;;
40367;SDS011;26075;43.320;21.920;2023-03-14T11:21:29;4.95;;;2.58;;
40367;SDS011;26075;43.320;21.920;2023-03-14T11:31:44;7.25;;;4.10;;
40367;SDS011;26075;43.320;21.920;2023-03-14T11:36:59;4.78;;;2.38;;
40367;SDS011;26075;43.320;21.920;2023-03-14T11:42:00;10.52;;;2.95;;
40367;SDS011;26075;43.320;21.920;2023-03-14T11:52:16;7.13;;;2.60;;
40367;SDS011;26075;43.320;21.920;2023-03-14T11:57:20;5.32;;;3.20;;
40367;SDS011;26075;43.320;21.920;2023-03-14T12:02:25;6.47;;;2.95;;
40367;SDS011;26075;43.320;21.920;2023-03-14T12:07:39;4.80;;;3.00;;
40367;SDS011;26075;43.320;21.920;2023-03-14T12:12:43;5.15;;;2.85;;
40367;SDS011;26075;43.320;21.920;2023-03-14T12:17:44;5.55;;;3.30;;
40367;SDS011;26075;43.320;21.920;2023-03-14T12:22:47;7.18;;;2.95;;
40367;SDS011;26075;43.320;21.920;2023-03-14T12:43:25;7.30;;;3.70;;
40367;SDS011;26075;43.320;21.920;2023-03-14T12:48:26;9.98;;;3.05;;
40367;SDS011;26075;43.320;21.920;2023-03-14T12:53:41;9.30;;;3.50;;
40367;SDS011;26075;43.320;21.920;2023-03-14T13:03:51;7.30;;;3.67;;
40367;SDS011;26075;43.320;21.920;2023-03-14T13:08:54;8.95;;;4.13;;
40367;SDS011;26075;43.320;21.920;2023-03-14T13:13:57;7.53;;;3.22;;
40367;SDS011;26075;43.320;21.920;2023-03-14T13:19:01;8.10;;;2.97;;
40367;SDS011;26075;43.320;21.920;2023-03-14T13:24:04;5.25;;;3.15;;
40367;SDS011;26075;43.320;21.920;2023-03-14T13:29:14;8.25;;;3.90;;
40367;SDS011;26075;43.320;21.920;2023-03-14T13:34:15;10.95;;;3.03;;
40367;SDS011;26075;43.320;21.920;2023-03-14T13:39:18;6.00;;;2.72;;
40367;SDS011;26075;43.320;21.920;2023-03-14T13:44:38;8.95;;;3.50;;
40367;SDS011;26075;43.320;21.920;2023-03-14T13:49:40;9.10;;;2.95;;
40367;SDS011;26075;43.320;21.920;2023-03-14T13:54:41;7.72;;;3.80;;
40367;SDS011;26075;43.320;21.920;2023-03-14T13:59:42;7.00;;;4.13;;
40367;SDS011;26075;43.320;21.920;2023-03-14T14:04:43;7.95;;;4.60;;
40367;SDS011;26075;43.320;21.920;2023-03-14T14:09:46;9.82;;;4.18;;
40367;SDS011;26075;43.320;21.920;2023-03-14T14:14:50;5.45;;;3.38;;
40367;SDS011;26075;43.320;21.920;2023-03-14T14:19:52;7.32;;;4.18;;
40367;SDS011;26075;43.320;21.920;2023-03-14T14:24:53;8.77;;;5.15;;
40367;SDS011;26075;43.320;21.920;2023-03-14T14:29:59;8.60;;;4.15;;
40367;SDS011;26075;43.320;21.920;2023-03-14T14:35:01;7.30;;;4.43;;
40367;SDS011;26075;43.320;21.920;2023-03-14T14:40:17;8.05;;;4.10;;
40367;SDS011;26075;43.320;21.920;2023-03-14T14:55:23;12.80;;;4.38;;
40367;SDS011;26075;43.320;21.920;2023-03-14T15:00:34;13.23;;;4.10;;
40367;SDS011;26075;43.320;21.920;2023-03-14T15:05:37;10.52;;;4.80;;
40367;SDS011;26075;43.320;21.920;2023-03-14T15:10:40;12.45;;;4.53;;
40367;SDS011;26075;43.320;21.920;2023-03-14T15:15:41;12.13;;;6.00;;
40367;SDS011;26075;43.320;21.920;2023-03-14T15:20:43;9.93;;;5.07;;
40367;SDS011;26075;43.320;21.920;2023-03-14T15:25:45;12.15;;;5.40;;
40367;SDS011;26075;43.320;21.920;2023-03-14T15:30:48;8.98;;;5.05;;
40367;SDS011;26075;43.320;21.920;2023-03-14T15:35:49;12.25;;;5.07;;
40367;SDS011;26075;43.320;21.920;2023-03-14T15:40:51;7.95;;;4.88;;
40367;SDS011;26075;43.320;21.920;2023-03-14T15:45:52;6.85;;;3.83;;
40367;SDS011;26075;43.320;21.920;2023-03-14T15:50:53;8.13;;;4.93;;
40367;SDS011;26075;43.320;21.920;2023-03-14T15:55:54;11.23;;;5.13;;
40367;SDS011;26075;43.320;21.920;2023-03-14T16:00:55;12.02;;;6.20;;
40367;SDS011;26075;43.320;21.920;2023-03-14T16:05:56;15.45;;;7.88;;
40367;SDS011;26075;43.320;21.920;2023-03-14T16:10:58;14.82;;;8.68;;
40367;SDS011;26075;43.320;21.920;2023-03-14T16:16:00;15.48;;;6.22;;
40367;SDS011;26075;43.320;21.920;2023-03-14T16:21:03;14.48;;;6.95;;
40367;SDS011;26075;43.320;21.920;2023-03-14T16:26:06;12.32;;;6.97;;
40367;SDS011;26075;43.320;21.920;2023-03-14T16:31:09;15.90;;;8.05;;
40367;SDS011;26075;43.320;21.920;2023-03-14T16:36:10;18.13;;;10.05;;
40367;SDS011;26075;43.320;21.920;2023-03-14T16:46:14;28.80;;;17.35;;
40367;SDS011;26075;43.320;21.920;2023-03-14T16:51:18;39.80;;;21.15;;
40367;SDS011;26075;43.320;21.920;2023-03-14T16:56:19;40.20;;;22.15;;
40367;SDS011;26075;43.320;21.920;2023-03-14T17:01:20;54.25;;;29.33;;
40367;SDS011;26075;43.320;21.920;2023-03-14T17:06:23;47.13;;;31.13;;
40367;SDS011;26075;43.320;21.920;2023-03-14T17:11:24;47.03;;;28.77;;
40367;SDS011;26075;43.320;21.920;2023-03-14T17:16:25;44.78;;;28.38;;
40367;SDS011;26075;43.320;21.920;2023-03-14T17:21:26;53.33;;;31.85;;
40367;SDS011;26075;43.320;21.920;2023-03-14T17:26:27;53.90;;;35.63;;
40367;SDS011;26075;43.320;21.920;2023-03-14T17:31:29;57.17;;;36.42;;
40367;SDS011;26075;43.320;21.920;2023-03-14T17:36:30;51.45;;;33.75;;
40367;SDS011;26075;43.320;21.920;2023-03-14T17:41:31;64.25;;;28.35;;
40367;SDS011;26075;43.320;21.920;2023-03-14T17:46:32;42.17;;;27.95;;
40367;SDS011;26075;43.320;21.920;2023-03-14T17:51:33;43.95;;;26.52;;
40367;SDS011;26075;43.320;21.920;2023-03-14T17:56:34;41.55;;;27.17;;
40367;SDS011;26075;43.320;21.920;2023-03-14T18:01:36;52.25;;;26.95;;
40367;SDS011;26075;43.320;21.920;2023-03-14T18:06:37;45.95;;;29.63;;
40367;SDS011;26075;43.320;21.920;2023-03-14T18:11:38;61.38;;;39.85;;
40367;SDS011;26075;43.320;21.920;2023-03-14T18:16:39;53.33;;;35.53;;
40367;SDS011;26075;43.320;21.920;2023-03-14T18:21:40;82.38;;;46.95;;
40367;SDS011;26075;43.320;21.920;2023-03-14T18:26:42;70.50;;;41.13;;
40367;SDS011;26075;43.320;21.920;2023-03-14T18:31:44;78.35;;;46.25;;
40367;SDS011;26075;43.320;21.920;2023-03-14T18:36:45;48.92;;;28.98;;
40367;SDS011;26075;43.320;21.920;2023-03-14T18:41:47;48.22;;;29.58;;
40367;SDS011;26075;43.320;21.920;2023-03-14T18:46:48;47.45;;;30.90;;
40367;SDS011;26075;43.320;21.920;2023-03-14T18:51:49;50.78;;;31.48;;
40367;SDS011;26075;43.320;21.920;2023-03-14T18:56:50;51.03;;;33.58;;
40367;SDS011;26075;43.320;21.920;2023-03-14T19:01:51;60.75;;;36.83;;
40367;SDS011;26075;43.320;21.920;2023-03-14T19:06:53;51.38;;;36.13;;
40367;SDS011;26075;43.320;21.920;2023-03-14T19:11:54;47.22;;;30.33;;
40367;SDS011;26075;43.320;21.920;2023-03-14T19:16:55;35.47;;;25.75;;
40367;SDS011;26075;43.320;21.920;2023-03-14T19:21:56;34.42;;;24.15;;
40367;SDS011;26075;43.320;21.920;2023-03-14T19:26:57;32.90;;;22.02;;
40367;SDS011;26075;43.320;21.920;2023-03-14T19:31:58;27.02;;;20.83;;
40367;SDS011;26075;43.320;21.920;2023-03-14T19:36:59;27.65;;;19.00;;
40367;SDS011;26075;43.320;21.920;2023-03-14T19:42:01;31.13;;;22.65;;
40367;SDS011;26075;43.320;21.920;2023-03-14T19:47:02;38.72;;;26.05;;
40367;SDS011;26075;43.320;21.920;2023-03-14T19:52:04;45.58;;;30.00;;
40367;SDS011;26075;43.320;21.920;2023-03-14T19:57:05;49.88;;;33.45;;
40367;SDS011;26075;43.320;21.920;2023-03-14T20:02:08;53.92;;;35.05;;
40367;SDS011;26075;43.320;21.920;2023-03-14T20:07:09;50.97;;;33.70;;
40367;SDS011;26075;43.320;21.920;2023-03-14T20:12:11;55.33;;;35.13;;
40367;SDS011;26075;43.320;21.920;2023-03-14T20:17:12;52.83;;;35.53;;
40367;SDS011;26075;43.320;21.920;2023-03-14T20:22:13;45.97;;;31.98;;
40367;SDS011;26075;43.320;21.920;2023-03-14T20:27:14;53.13;;;34.55;;
40367;SDS011;26075;43.320;21.920;2023-03-14T20:32:16;51.50;;;33.10;;
40367;SDS011;26075;43.320;21.920;2023-03-14T20:37:18;66.05;;;45.22;;
40367;SDS011;26075;43.320;21.920;2023-03-14T20:42:22;65.85;;;44.30;;
40367;SDS011;26075;43.320;21.920;2023-03-14T20:47:25;67.18;;;40.53;;
40367;SDS011;26075;43.320;21.920;2023-03-14T20:52:26;57.15;;;37.35;;
40367;SDS011;26075;43.320;21.920;2023-03-14T20:57:27;38.08;;;26.30;;
40367;SDS011;26075;43.320;21.920;2023-03-14T21:02:29;37.97;;;23.23;;
40367;SDS011;26075;43.320;21.920;2023-03-14T21:07:33;37.58;;;21.17;;
40367;SDS011;26075;43.320;21.920;2023-03-14T21:12:40;33.75;;;22.52;;
40367;SDS011;26075;43.320;21.920;2023-03-14T21:17:41;29.73;;;18.48;;
40367;SDS011;26075;43.320;21.920;2023-03-14T21:22:42;27.15;;;18.63;;
40367;SDS011;26075;43.320;21.920;2023-03-14T21:27:43;23.25;;;16.45;;
40367;SDS011;26075;43.320;21.920;2023-03-14T21:32:44;25.80;;;15.73;;
40367;SDS011;26075;43.320;21.920;2023-03-14T21:37:45;24.08;;;15.35;;
40367;SDS011;26075;43.320;21.920;2023-03-14T21:42:47;25.40;;;13.23;;
40367;SDS011;26075;43.320;21.920;2023-03-14T21:47:48;19.95;;;12.90;;
40367;SDS011;26075;43.320;21.920;2023-03-14T21:52:49;30.50;;;16.83;;
40367;SDS011;26075;43.320;21.920;2023-03-14T21:57:55;23.92;;;14.45;;
40367;SDS011;26075;43.320;21.920;2023-03-14T22:02:56;22.10;;;14.50;;
40367;SDS011;26075;43.320;21.920;2023-03-14T22:07:57;22.98;;;12.73;;
40367;SDS011;26075;43.320;21.920;2023-03-14T22:12:58;15.90;;;9.93;;
40367;SDS011;26075;43.320;21.920;2023-03-14T22:18:00;15.75;;;9.90;;
40367;SDS011;26075;43.320;21.920;2023-03-14T22:23:01;11.05;;;7.60;;
40367;SDS011;26075;43.320;21.920;2023-03-14T22:28:02;11.00;;;6.18;;
40367;SDS011;26075;43.320;21.920;2023-03-14T22:33:03;14.73;;;6.10;;
40367;SDS011;26075;43.320;21.920;2023-03-14T22:38:04;8.57;;;5.30;;
40367;SDS011;26075;43.320;21.920;2023-03-14T22:43:05;11.95;;;5.18;;
40367;SDS011;26075;43.320;21.920;2023-03-14T22:48:07;9.05;;;5.10;;
40367;SDS011;26075;43.320;21.920;2023-03-14T22:53:08;9.27;;;5.22;;
40367;SDS011;26075;43.320;21.920;2023-03-14T22:58:09;12.20;;;5.80;;
40367;SDS011;26075;43.320;21.920;2023-03-14T23:03:10;11.15;;;5.38;;
40367;SDS011;26075;43.320;21.920;2023-03-14T23:08:13;10.15;;;6.05;;
40367;SDS011;26075;43.320;21.920;2023-03-14T23:13:14;11.98;;;7.07;;
40367;SDS011;26075;43.320;21.920;2023-03-14T23:18:15;9.45;;;6.25;;
40367;SDS011;26075;43.320;21.920;2023-03-14T23:23:16;10.02;;;5.60;;
40367;SDS011;26075;43.320;21.920;2023-03-14T23:28:17;9.70;;;5.78;;
40367;SDS011;26075;43.320;21.920;2023-03-14T23:33:18;13.10;;;7.32;;
40367;SDS011;26075;43.320;21.920;2023-03-14T23:38:20;11.27;;;7.28;;
40367;SDS011;26075;43.320;21.920;2023-03-14T23:43:23;14.40;;;7.55;;
40367;SDS011;26075;43.320;21.920;2023-03-14T23:48:25;13.45;;;7.93;;
40367;SDS011;26075;43.320;21.920;2023-03-14T23:53:27;11.25;;;7.40;;
40367;SDS011;26075;43.320;21.920;2023-03-14T23:58:29;16.90;;;8.13;;
